KFTW/FTW METAR and TAF weather

Enter ICAO airport designator
Station Type Date Time Source
KFTW METAR 2022/06/25 22:53 UTC NOAA

KFTW 252253Z 14007KT 10SM CLR 38/12 A2989 RMK AO2 SLP110 T03780117


Station Type Date Time Source
KFTW Decoded METAR 2022/06/25 22:53 UTC NOAA

FORT WORTH MEACHAM INTERNATIONAL ., TX, United States (KFTW) 32-50N 097-22W 214M
Jun 25, 2022 - 06:53 PM EDT / 2022.06.25 2253 UTC
Wind: from the SE (140 degrees) at 8 MPH (7 KT):0
Visibility: 10 mile(s):0
Sky conditions: clear
Temperature: 100.0 F (37.8 C)
Heat index: 97.5 F (36.4 C):1
Dew Point: 53.1 F (11.7 C)
Relative Humidity: 20%
Pressure (altimeter): 29.89 in. Hg (1012 hPa)
ob: KFTW 252253Z 14007KT 10SM CLR 38/12 A2989 RMK AO2 SLP110 T03780117
cycle: 23

Station Type Date Time Source
KFTW TAF 2022/06/25 21:12 UTC NOAA

TAF
AMD KFTW 252110Z 2521/2618 16010KT P6SM FEW250
FM261400 30010KT P6SM SCT250

Example: see airport list